createdAt,value
2019-05-16T00:00:34.041Z,7.50
2019-05-16T00:01:19.897Z,7.50
2019-05-16T00:02:08.225Z,7.60
2019-05-16T00:02:53.718Z,7.50
2019-05-16T00:03:39.364Z,7.50
2019-05-16T00:04:25.059Z,7.50
2019-05-16T00:05:11.387Z,7.50
2019-05-16T00:05:58.456Z,7.50
2019-05-16T00:06:44.478Z,7.60
2019-05-16T00:07:30.302Z,7.50
2019-05-16T00:08:17.854Z,7.50
2019-05-16T00:09:05.085Z,7.50
2019-05-16T00:09:51.113Z,7.50
2019-05-16T00:10:38.406Z,7.50
2019-05-16T00:11:24.729Z,7.40
2019-05-16T00:12:11.034Z,7.40
2019-05-16T00:12:59.609Z,7.40
2019-05-16T00:13:45.045Z,7.40
2019-05-16T00:14:31.453Z,7.40
2019-05-16T00:15:18.220Z,7.30
2019-05-16T00:16:04.651Z,7.30
2019-05-16T00:16:50.776Z,7.40
2019-05-16T00:17:38.627Z,7.30
2019-05-16T00:18:25.180Z,7.30
2019-05-16T00:19:11.653Z,7.40
2019-05-16T00:19:58.915Z,7.30
2019-05-16T00:20:45.564Z,7.30
2019-05-16T00:21:31.859Z,7.20
2019-05-16T00:22:18.192Z,7.30
2019-05-16T00:23:04.632Z,7.30
2019-05-16T00:23:50.792Z,7.20
2019-05-16T00:24:38.117Z,7.20
2019-05-16T00:25:24.454Z,7.20
2019-05-16T00:26:12.852Z,7.20
2019-05-16T00:26:58.715Z,7.20
2019-05-16T00:27:44.880Z,7.20
2019-05-16T00:28:31.039Z,7.20
2019-05-16T00:29:18.440Z,7.20
2019-05-16T00:30:05.687Z,7.30
2019-05-16T00:30:52.023Z,7.30
2019-05-16T00:31:38.331Z,7.30
2019-05-16T00:32:24.769Z,7.30
2019-05-16T00:33:10.873Z,7.30
2019-05-16T00:33:57.888Z,7.30
2019-05-16T00:34:44.294Z,7.20
2019-05-16T00:35:30.047Z,7.30
2019-05-16T00:36:18.692Z,7.20
2019-05-16T00:37:03.977Z,7.20
2019-05-16T00:37:50.275Z,7.10
2019-05-16T00:38:37.961Z,7.10
2019-05-16T00:39:23.882Z,7.10
2019-05-16T00:40:10.106Z,7.00
2019-05-16T00:40:56.289Z,7.00
2019-05-16T00:41:42.756Z,7.00
2019-05-16T00:42:28.748Z,7.00
2019-05-16T00:43:14.596Z,7.00
2019-05-16T00:44:00.584Z,7.00
2019-05-16T00:44:47.855Z,6.90
2019-05-16T00:45:33.954Z,6.90
2019-05-16T00:46:20.191Z,6.90
2019-05-16T00:47:08.661Z,7.00
2019-05-16T00:48:05.340Z,7.00
2019-05-16T00:48:51.665Z,6.90
2019-05-16T00:49:38.616Z,6.90
2019-05-16T00:50:24.669Z,6.80
2019-05-16T00:51:10.914Z,6.90
2019-05-16T00:51:58.449Z,6.90
2019-05-16T00:52:44.471Z,6.90
2019-05-16T00:53:30.626Z,6.90
2019-05-16T00:54:18.626Z,6.90
2019-05-16T00:55:04.435Z,6.90
2019-05-16T00:55:50.548Z,6.90
2019-05-16T00:56:38.403Z,6.90
2019-05-16T00:57:25.583Z,6.90
2019-05-16T00:58:12.204Z,6.90
2019-05-16T00:58:58.863Z,6.90
2019-05-16T00:59:44.786Z,6.90
2019-05-16T01:00:45.055Z,6.90
2019-05-16T01:01:31.187Z,6.80
2019-05-16T01:02:18.139Z,6.90
2019-05-16T01:03:04.316Z,6.90
2019-05-16T01:03:50.326Z,6.90
2019-05-16T01:04:38.174Z,6.90
2019-05-16T01:05:24.208Z,6.90
2019-05-16T01:06:19.254Z,6.90
2019-05-16T01:07:01.676Z,6.90
2019-05-16T01:07:48.156Z,6.80
2019-05-16T01:08:34.520Z,6.90
2019-05-16T01:09:20.863Z,6.90
2019-05-16T01:10:08.985Z,6.90
2019-05-16T01:10:55.083Z,6.80
2019-05-16T01:11:41.265Z,6.80
2019-05-16T01:12:28.344Z,6.80
2019-05-16T01:13:14.547Z,6.80
2019-05-16T01:14:00.244Z,6.80
2019-05-16T01:14:47.751Z,6.80
2019-05-16T01:15:33.627Z,6.80
2019-05-16T01:16:19.440Z,6.80
2019-05-16T01:17:05.553Z,6.80
2019-05-16T01:17:51.701Z,6.80
2019-05-16T01:18:37.965Z,6.80
2019-05-16T01:19:24.191Z,6.80
2019-05-16T01:20:10.543Z,6.80
2019-05-16T01:20:58.577Z,6.80
2019-05-16T01:21:44.861Z,6.80
2019-05-16T01:22:30.857Z,6.80
2019-05-16T01:23:18.206Z,6.80
2019-05-16T01:24:04.181Z,6.80
2019-05-16T01:24:49.986Z,6.90
2019-05-16T01:25:35.864Z,6.90
2019-05-16T01:26:22.039Z,6.80
2019-05-16T01:27:08.329Z,6.80
2019-05-16T01:27:54.355Z,6.90
2019-05-16T01:28:40.051Z,6.80
2019-05-16T01:29:28.236Z,6.90
2019-05-16T01:30:13.836Z,6.80
2019-05-16T01:30:59.716Z,6.80
2019-05-16T01:31:45.368Z,6.80
2019-05-16T01:32:32.223Z,6.80
2019-05-16T01:33:19.186Z,6.80
2019-05-16T01:34:07.663Z,6.80
2019-05-16T01:34:53.050Z,6.80
2019-05-16T01:35:41.859Z,6.80
2019-05-16T01:36:36.726Z,6.80
2019-05-16T01:37:15.637Z,6.70
2019-05-16T01:38:01.740Z,6.80
2019-05-16T01:38:48.084Z,6.80
2019-05-16T01:39:34.100Z,6.70
2019-05-16T01:40:19.787Z,6.80
2019-05-16T01:41:05.851Z,6.80
2019-05-16T01:41:51.914Z,6.70
2019-05-16T01:42:38.497Z,6.70
2019-05-16T01:43:24.729Z,6.80
2019-05-16T01:44:10.399Z,6.80
2019-05-16T01:44:57.857Z,6.80
2019-05-16T01:45:44.014Z,6.90
2019-05-16T01:46:30.199Z,6.90
2019-05-16T01:47:18.259Z,6.90
2019-05-16T01:48:04.334Z,6.90
2019-05-16T01:48:51.047Z,6.90
2019-05-16T01:49:38.118Z,6.80
2019-05-16T01:50:24.175Z,6.90
2019-05-16T01:51:10.148Z,6.80
2019-05-16T01:51:57.821Z,6.80
2019-05-16T01:52:43.668Z,6.90
2019-05-16T01:53:32.399Z,6.90
2019-05-16T01:54:18.626Z,6.90
2019-05-16T01:55:04.701Z,6.80
2019-05-16T01:55:50.974Z,6.80
2019-05-16T01:56:38.798Z,6.90
2019-05-16T01:57:24.486Z,6.90
2019-05-16T01:58:10.233Z,6.90
2019-05-16T01:58:58.122Z,6.90
2019-05-16T01:59:43.926Z,6.90
2019-05-16T02:00:36.974Z,6.90
2019-05-16T02:01:19.147Z,6.90
2019-05-16T02:02:05.599Z,6.90
2019-05-16T02:02:51.655Z,6.90
2019-05-16T02:03:38.733Z,6.90
2019-05-16T02:04:24.944Z,6.90
2019-05-16T02:05:11.678Z,7.00
2019-05-16T02:05:58.920Z,6.90
2019-05-16T02:06:53.571Z,7.00
2019-05-16T02:07:33.891Z,7.00
2019-05-16T02:08:20.324Z,6.90
2019-05-16T02:09:08.073Z,7.00
2019-05-16T02:09:54.827Z,6.90
2019-05-16T02:10:41.114Z,7.00
2019-05-16T02:11:28.507Z,7.00
2019-05-16T02:12:14.573Z,7.00
2019-05-16T02:13:00.826Z,7.00
2019-05-16T02:13:48.509Z,7.00
2019-05-16T02:14:35.024Z,6.90
2019-05-16T02:15:21.423Z,6.90
2019-05-16T02:16:08.324Z,6.90
2019-05-16T02:16:54.823Z,6.90
2019-05-16T02:17:40.694Z,6.90
2019-05-16T02:18:28.692Z,6.90
2019-05-16T02:19:14.788Z,6.90
2019-05-16T02:20:00.772Z,6.90
2019-05-16T02:20:47.953Z,6.90
2019-05-16T02:21:36.043Z,6.80
2019-05-16T02:22:22.586Z,6.90
2019-05-16T02:23:08.759Z,6.90
2019-05-16T02:23:55.087Z,6.90
2019-05-16T02:24:41.696Z,6.90
2019-05-16T02:25:27.834Z,6.90
2019-05-16T02:26:13.736Z,6.90
2019-05-16T02:26:59.435Z,6.90
2019-05-16T02:27:45.609Z,6.90
2019-05-16T02:28:39.799Z,6.90
2019-05-16T02:29:20.526Z,6.90
2019-05-16T02:30:07.120Z,6.90
2019-05-16T02:30:53.132Z,6.90
2019-05-16T02:31:41.851Z,7.00
2019-05-16T02:32:26.485Z,6.90
2019-05-16T02:33:12.149Z,6.90
2019-05-16T02:33:57.850Z,6.90
2019-05-16T02:34:45.523Z,7.00
2019-05-16T02:35:31.453Z,7.00
2019-05-16T02:36:21.259Z,7.10
2019-05-16T02:37:22.600Z,7.10
2019-05-16T02:37:55.252Z,7.10
2019-05-16T02:38:42.494Z,7.20
2019-05-16T02:39:30.526Z,7.20
2019-05-16T02:40:21.587Z,7.20
2019-05-16T02:41:10.526Z,7.20
2019-05-16T02:41:55.496Z,7.20
2019-05-16T02:42:42.503Z,7.30
2019-05-16T02:43:31.397Z,7.30
2019-05-16T02:44:16.313Z,7.30
2019-05-16T02:45:02.704Z,7.30
2019-05-16T02:45:51.886Z,7.30
2019-05-16T02:46:36.913Z,7.30
2019-05-16T02:47:23.074Z,7.30
2019-05-16T02:48:10.965Z,7.30
2019-05-16T02:49:00.852Z,7.30
2019-05-16T02:49:46.215Z,7.30
2019-05-16T02:50:31.997Z,7.30
2019-05-16T02:51:20.978Z,7.30
2019-05-16T02:52:06.278Z,7.30
2019-05-16T02:52:52.145Z,7.30
2019-05-16T02:53:41.321Z,7.40
2019-05-16T02:54:26.093Z,7.40
2019-05-16T02:55:12.262Z,7.40
2019-05-16T02:56:01.277Z,7.40
2019-05-16T02:56:46.408Z,7.40
2019-05-16T02:57:32.156Z,7.40
2019-05-16T02:58:22.820Z,7.50
2019-05-16T02:59:06.434Z,7.50
2019-05-16T02:59:52.956Z,7.50
2019-05-16T03:00:42.771Z,7.50
2019-05-16T03:01:27.786Z,7.50
2019-05-16T03:02:14.357Z,7.50
2019-05-16T03:03:01.568Z,7.50
2019-05-16T03:03:51.335Z,7.50
2019-05-16T03:04:39.805Z,7.60
2019-05-16T03:05:24.698Z,7.60
2019-05-16T03:06:11.325Z,7.60
2019-05-16T03:07:00.688Z,7.60
2019-05-16T03:07:47.725Z,7.60
2019-05-16T03:08:34.853Z,7.60
2019-05-16T03:09:21.456Z,7.60
2019-05-16T03:10:10.948Z,7.60
2019-05-16T03:10:57.011Z,7.60
2019-05-16T03:11:43.916Z,7.60
2019-05-16T03:12:32.004Z,7.60
2019-05-16T03:13:21.837Z,7.70
2019-05-16T03:14:06.740Z,7.70
2019-05-16T03:14:54.953Z,7.70
2019-05-16T03:15:46.413Z,7.70
2019-05-16T03:16:35.204Z,7.70
2019-05-16T03:17:24.703Z,7.80
2019-05-16T03:18:11.847Z,7.80
2019-05-16T03:19:01.196Z,7.80
2019-05-16T03:19:51.057Z,7.80
2019-05-16T03:20:40.790Z,7.80
2019-05-16T03:21:30.845Z,7.80
2019-05-16T03:22:21.856Z,7.80
2019-05-16T03:23:10.981Z,7.80
2019-05-16T03:23:56.103Z,7.90
2019-05-16T03:24:42.497Z,7.90
2019-05-16T03:25:31.022Z,7.80
2019-05-16T03:26:17.018Z,7.80
2019-05-16T03:27:03.492Z,7.80
2019-05-16T03:27:51.255Z,7.80
2019-05-16T03:28:41.093Z,7.80
2019-05-16T03:29:26.588Z,7.90
2019-05-16T03:30:15.675Z,7.90
2019-05-16T03:31:05.250Z,7.90
2019-05-16T03:31:53.547Z,7.90
2019-05-16T03:32:36.717Z,7.90
2019-05-16T03:33:32.181Z,7.90
2019-05-16T03:34:16.341Z,7.90
2019-05-16T03:35:04.083Z,7.90
2019-05-16T03:35:47.017Z,8.00
2019-05-16T03:36:34.335Z,8.00
2019-05-16T03:37:24.873Z,8.00
2019-05-16T03:38:12.160Z,8.00
2019-05-16T03:39:01.282Z,8.00
2019-05-16T03:39:51.241Z,8.00
2019-05-16T03:40:36.548Z,8.00
2019-05-16T03:41:22.772Z,8.10
2019-05-16T03:42:12.739Z,8.10
2019-05-16T03:43:01.089Z,8.00
2019-05-16T03:43:46.096Z,8.10
2019-05-16T03:44:32.389Z,8.10
2019-05-16T03:45:21.249Z,8.10
2019-05-16T03:46:07.145Z,8.10
2019-05-16T03:46:53.658Z,8.10
2019-05-16T03:47:42.780Z,8.10
2019-05-16T03:48:27.493Z,8.10
2019-05-16T03:49:13.866Z,8.10
2019-05-16T03:50:00.811Z,8.20
2019-05-16T03:50:50.470Z,8.20
2019-05-16T03:51:36.221Z,8.20
2019-05-16T03:52:24.732Z,8.20
2019-05-16T03:53:11.722Z,8.20
2019-05-16T03:54:02.623Z,8.20
2019-05-16T03:54:50.545Z,8.20
2019-05-16T03:55:35.924Z,8.20
2019-05-16T03:56:23.582Z,8.20
2019-05-16T03:57:11.584Z,8.20
2019-05-16T03:58:00.853Z,8.20
2019-05-16T03:58:46.279Z,8.20
2019-05-16T03:59:32.652Z,8.20
2019-05-16T04:00:24.193Z,8.20
2019-05-16T04:01:11.382Z,8.20
2019-05-16T04:02:01.235Z,8.20
2019-05-16T04:02:46.271Z,8.20
2019-05-16T04:03:33.381Z,8.10
2019-05-16T04:04:20.933Z,8.20
2019-05-16T04:05:07.288Z,8.20
2019-05-16T04:05:54.062Z,8.20
2019-05-16T04:06:41.611Z,8.20
2019-05-16T04:07:31.420Z,8.20
2019-05-16T04:08:20.887Z,8.20
2019-05-16T04:09:06.626Z,8.20
2019-05-16T04:09:52.728Z,8.20
2019-05-16T04:10:40.896Z,8.20
2019-05-16T04:11:26.949Z,8.20
2019-05-16T04:12:13.580Z,8.20
2019-05-16T04:13:01.081Z,8.20
2019-05-16T04:13:47.408Z,8.20
2019-05-16T04:14:33.497Z,8.20
2019-05-16T04:15:21.540Z,8.20
2019-05-16T04:16:11.861Z,8.20
2019-05-16T04:17:01.308Z,8.20
2019-05-16T04:17:51.059Z,8.20
2019-05-16T04:18:36.826Z,8.20
2019-05-16T04:19:23.079Z,8.20
2019-05-16T04:20:11.565Z,8.20
2019-05-16T04:21:01.026Z,8.20
2019-05-16T04:21:50.847Z,8.20
2019-05-16T04:22:35.465Z,8.20
2019-05-16T04:23:21.810Z,8.30
2019-05-16T04:24:07.750Z,8.30
2019-05-16T04:24:54.196Z,8.30
2019-05-16T04:25:41.169Z,8.30
2019-05-16T04:26:30.601Z,8.30
2019-05-16T04:27:15.407Z,8.40
2019-05-16T04:28:02.046Z,8.30
2019-05-16T04:28:51.218Z,8.30
2019-05-16T04:29:36.661Z,8.40
2019-05-16T04:30:23.197Z,8.40
2019-05-16T04:31:10.964Z,8.40
2019-05-16T04:31:57.664Z,8.40
2019-05-16T04:32:43.793Z,8.40
2019-05-16T04:33:30.913Z,8.50
2019-05-16T04:34:20.466Z,8.50
2019-05-16T04:35:05.434Z,8.50
2019-05-16T04:35:52.977Z,8.50
2019-05-16T04:36:40.661Z,8.50
2019-05-16T04:37:31.082Z,8.50
2019-05-16T04:38:30.260Z,8.50
2019-05-16T04:39:06.793Z,8.60
2019-05-16T04:39:53.844Z,8.60
2019-05-16T04:40:42.446Z,8.60
2019-05-16T04:41:31.197Z,8.60
2019-05-16T04:42:17.010Z,8.60
2019-05-16T04:43:03.390Z,8.70
2019-05-16T04:43:51.053Z,8.70
2019-05-16T04:44:41.386Z,8.70
2019-05-16T04:45:27.424Z,8.70
2019-05-16T04:46:13.741Z,8.80
2019-05-16T04:47:01.545Z,8.90
2019-05-16T04:47:50.977Z,8.80
2019-05-16T04:48:35.962Z,8.90
2019-05-16T04:49:21.874Z,8.90
2019-05-16T04:50:11.517Z,8.90
2019-05-16T04:51:01.042Z,8.90
2019-05-16T04:51:51.359Z,8.90
2019-05-16T04:52:36.842Z,8.90
2019-05-16T04:53:23.579Z,9.00
2019-05-16T04:54:11.426Z,9.00
2019-05-16T04:55:00.727Z,9.00
2019-05-16T04:55:46.493Z,9.00
2019-05-16T04:56:33.083Z,9.00
2019-05-16T04:57:20.907Z,9.00
2019-05-16T04:58:10.432Z,9.00
2019-05-16T04:58:55.559Z,9.10
2019-05-16T04:59:41.948Z,9.10
2019-05-16T05:00:31.994Z,9.10
2019-05-16T05:01:17.034Z,9.10
2019-05-16T05:02:06.469Z,9.10
2019-05-16T05:02:52.916Z,9.20
2019-05-16T05:03:41.023Z,9.20
2019-05-16T05:04:30.264Z,9.20
2019-05-16T05:05:44.203Z,9.20
2019-05-16T05:06:31.265Z,9.30
2019-05-16T05:07:20.735Z,9.30
2019-05-16T05:08:06.281Z,9.40
2019-05-16T05:08:58.300Z,9.40
2019-05-16T05:09:41.038Z,9.40
2019-05-16T05:10:27.366Z,9.40
2019-05-16T05:11:52.166Z,9.40
2019-05-16T05:12:40.786Z,9.40
2019-05-16T05:13:26.551Z,9.40
2019-05-16T05:14:13.212Z,9.40
2019-05-16T05:15:01.231Z,9.40
2019-05-16T05:15:50.727Z,9.40
2019-05-16T05:16:36.103Z,9.40
2019-05-16T05:17:22.761Z,9.40
2019-05-16T05:18:10.171Z,9.40
2019-05-16T05:18:56.466Z,9.40
2019-05-16T05:19:43.034Z,9.40
2019-05-16T05:20:30.421Z,9.40
2019-05-16T05:21:16.856Z,9.40
2019-05-16T05:22:03.468Z,9.40
2019-05-16T05:22:50.105Z,9.40
2019-05-16T05:23:36.633Z,9.30
2019-05-16T05:24:23.261Z,9.30
2019-05-16T05:25:10.875Z,9.30
2019-05-16T05:26:00.076Z,9.30
2019-05-16T05:26:45.762Z,9.30
2019-05-16T05:27:32.435Z,9.30
2019-05-16T05:28:20.959Z,9.30
2019-05-16T05:29:07.768Z,9.30
2019-05-16T05:29:54.611Z,9.30
2019-05-16T05:30:40.871Z,9.30
2019-05-16T05:31:27.093Z,9.30
2019-05-16T05:32:14.569Z,9.20
2019-05-16T05:33:00.846Z,9.20
2019-05-16T05:33:47.685Z,9.20
2019-05-16T05:34:33.839Z,9.20
2019-05-16T05:35:20.642Z,9.20
2019-05-16T05:36:12.015Z,9.30
2019-05-16T05:36:55.769Z,9.30
2019-05-16T05:37:45.164Z,9.30
2019-05-16T05:38:31.323Z,9.30
2019-05-16T05:39:17.256Z,9.40
2019-05-16T05:40:04.085Z,9.40
2019-05-16T05:40:51.126Z,9.40
2019-05-16T05:41:39.937Z,9.40
2019-05-16T05:42:25.503Z,9.40
2019-05-16T05:43:11.837Z,9.50
2019-05-16T05:43:59.830Z,9.40
2019-05-16T05:44:50.790Z,9.50
2019-05-16T05:45:40.053Z,9.50
2019-05-16T05:46:26.031Z,9.50
2019-05-16T05:47:12.060Z,9.40
2019-05-16T05:48:00.164Z,9.40
2019-05-16T05:48:46.483Z,9.40
2019-05-16T05:49:33.071Z,9.40
2019-05-16T05:50:20.139Z,9.40
2019-05-16T05:51:06.525Z,9.40
2019-05-16T05:51:52.632Z,9.40
2019-05-16T05:52:41.142Z,9.50
2019-05-16T05:53:26.820Z,9.50
2019-05-16T05:54:13.030Z,9.40
2019-05-16T05:55:00.646Z,9.50
2019-05-16T05:55:46.989Z,9.50
2019-05-16T05:56:33.129Z,9.50
2019-05-16T05:57:20.913Z,9.50
2019-05-16T05:58:10.081Z,9.60
2019-05-16T05:58:58.264Z,9.60
2019-05-16T05:59:44.627Z,9.60
2019-05-16T06:00:31.110Z,9.70
2019-05-16T06:01:17.089Z,9.70
2019-05-16T06:02:03.607Z,9.80
2019-05-16T06:02:52.233Z,9.80
2019-05-16T06:03:39.863Z,9.90
2019-05-16T06:04:26.283Z,10.00
2019-05-16T06:05:12.863Z,10.10
2019-05-16T06:06:01.017Z,10.10
2019-05-16T06:06:50.175Z,10.20
2019-05-16T06:07:35.980Z,10.20
2019-05-16T06:08:22.465Z,10.30
2019-05-16T06:09:14.339Z,10.30
2019-05-16T06:10:00.219Z,10.40
2019-05-16T06:10:45.913Z,10.40
2019-05-16T06:11:32.227Z,10.40
2019-05-16T06:12:21.054Z,10.40
2019-05-16T06:13:05.760Z,10.40
2019-05-16T06:13:51.505Z,10.40
2019-05-16T06:14:37.321Z,10.40
2019-05-16T06:15:23.660Z,10.40
2019-05-16T06:16:10.749Z,10.40
2019-05-16T06:16:57.136Z,10.40
2019-05-16T06:17:42.825Z,10.40
2019-05-16T06:18:30.577Z,10.40
2019-05-16T06:19:16.171Z,10.40
2019-05-16T06:20:01.954Z,10.40
2019-05-16T06:20:48.085Z,10.40
2019-05-16T06:21:34.367Z,10.40
2019-05-16T06:22:20.628Z,10.50
2019-05-16T06:23:06.819Z,10.50
2019-05-16T06:23:53.367Z,10.50
2019-05-16T06:24:39.906Z,10.60
2019-05-16T06:25:26.654Z,10.60
2019-05-16T06:26:13.151Z,10.60
2019-05-16T06:27:00.949Z,10.60
2019-05-16T06:27:47.095Z,10.60
2019-05-16T06:28:33.575Z,10.60
2019-05-16T06:29:20.458Z,10.60
2019-05-16T06:30:06.824Z,10.60
2019-05-16T06:30:52.615Z,10.60
2019-05-16T06:31:40.473Z,10.60
2019-05-16T06:32:26.239Z,10.50
2019-05-16T06:33:12.210Z,10.60
2019-05-16T06:34:06.820Z,10.60
2019-05-16T06:34:46.091Z,10.60
2019-05-16T06:35:32.163Z,10.70
2019-05-16T06:36:20.395Z,10.70
2019-05-16T06:37:06.457Z,10.70
2019-05-16T06:37:52.882Z,10.80
2019-05-16T06:38:40.521Z,10.90
2019-05-16T06:39:40.811Z,11.00
2019-05-16T06:40:15.031Z,11.20
2019-05-16T06:41:01.370Z,11.50
2019-05-16T06:41:47.503Z,11.60
2019-05-16T06:42:33.955Z,11.70
2019-05-16T06:43:22.216Z,11.80
2019-05-16T06:44:10.539Z,11.90
2019-05-16T06:44:56.754Z,11.90
2019-05-16T06:45:42.928Z,12.00
2019-05-16T06:46:30.703Z,12.00
2019-05-16T06:47:20.688Z,12.10
2019-05-16T06:48:10.007Z,12.10
2019-05-16T06:48:56.092Z,12.10
2019-05-16T06:49:42.247Z,12.00
2019-05-16T06:50:29.809Z,12.00
2019-05-16T06:51:16.123Z,11.90
2019-05-16T06:52:02.637Z,11.90
2019-05-16T06:52:50.148Z,11.90
2019-05-16T06:53:36.621Z,12.00
2019-05-16T06:54:22.703Z,12.20
2019-05-16T06:55:10.087Z,12.20
2019-05-16T06:55:56.331Z,12.30
2019-05-16T06:56:42.233Z,12.40
2019-05-16T06:57:30.191Z,12.50
2019-05-16T06:58:21.890Z,12.50
2019-05-16T06:59:06.143Z,12.60
2019-05-16T06:59:54.166Z,12.70
2019-05-16T07:00:40.724Z,12.70
2019-05-16T07:01:29.645Z,12.80
2019-05-16T07:02:26.482Z,12.80
2019-05-16T07:03:02.951Z,12.90
2019-05-16T07:03:50.816Z,12.90
2019-05-16T07:04:40.151Z,12.90
2019-05-16T07:05:26.634Z,13.00
2019-05-16T07:06:29.884Z,13.00
2019-05-16T07:07:03.086Z,13.00
2019-05-16T07:07:50.949Z,12.90
2019-05-16T07:08:40.314Z,12.90
2019-05-16T07:09:26.949Z,12.90
2019-05-16T07:10:13.071Z,12.90
2019-05-16T07:11:54.752Z,12.90
2019-05-16T07:12:41.490Z,12.80
2019-05-16T07:13:30.158Z,12.70
2019-05-16T07:14:15.769Z,12.70
2019-05-16T07:15:02.309Z,12.70
2019-05-16T07:15:50.065Z,12.70
2019-05-16T07:16:35.887Z,12.70
2019-05-16T07:17:21.557Z,12.70
2019-05-16T07:18:10.233Z,12.60
2019-05-16T07:18:55.072Z,12.60
2019-05-16T07:19:41.411Z,12.50
2019-05-16T07:20:27.115Z,12.40
2019-05-16T07:21:12.983Z,12.40
2019-05-16T07:21:59.802Z,12.30
2019-05-16T07:22:45.713Z,12.40
2019-05-16T07:23:31.441Z,12.30
2019-05-16T07:24:17.146Z,12.40
2019-05-16T07:25:03.957Z,12.40
2019-05-16T07:25:50.466Z,12.40
2019-05-16T07:26:36.625Z,12.40
2019-05-16T07:27:22.356Z,12.30
2019-05-16T07:28:10.254Z,12.40
2019-05-16T07:28:55.828Z,12.40
2019-05-16T07:29:41.456Z,12.40
2019-05-16T07:30:27.258Z,12.30
2019-05-16T07:31:18.444Z,12.30
2019-05-16T07:32:01.162Z,12.30
2019-05-16T07:32:49.765Z,12.30
2019-05-16T07:33:35.935Z,12.30
2019-05-16T07:34:23.572Z,12.30
2019-05-16T07:35:10.872Z,12.30
2019-05-16T07:35:56.943Z,12.40
2019-05-16T07:36:42.964Z,12.30
2019-05-16T07:37:31.453Z,12.30
2019-05-16T07:38:20.027Z,12.30
2019-05-16T07:39:05.626Z,12.40
2019-05-16T07:39:51.790Z,12.40
2019-05-16T07:40:40.102Z,12.40
2019-05-16T07:41:26.308Z,12.30
2019-05-16T07:42:12.347Z,12.30
2019-05-16T07:43:00.092Z,12.30
2019-05-16T07:43:50.504Z,12.30
2019-05-16T07:44:36.517Z,12.30
2019-05-16T07:45:22.637Z,12.30
2019-05-16T07:46:10.968Z,12.30
2019-05-16T07:46:56.277Z,12.30
2019-05-16T07:47:41.938Z,12.10
2019-05-16T07:48:33.615Z,12.10
2019-05-16T07:49:19.772Z,12.20
2019-05-16T07:50:06.150Z,12.20
2019-05-16T07:50:51.810Z,12.20
2019-05-16T07:51:37.495Z,12.20
2019-05-16T07:52:23.158Z,12.20
2019-05-16T07:53:10.610Z,12.20
2019-05-16T07:53:56.763Z,12.30
2019-05-16T07:54:42.743Z,12.30
2019-05-16T07:55:30.792Z,12.40
2019-05-16T07:56:16.605Z,12.40
2019-05-16T07:57:18.596Z,12.40
2019-05-16T07:57:50.771Z,12.50
2019-05-16T07:58:41.376Z,12.40
2019-05-16T07:59:29.794Z,12.40
2019-05-16T08:00:15.304Z,12.30
2019-05-16T08:01:07.385Z,12.30
2019-05-16T08:01:53.782Z,12.30
2019-05-16T08:02:40.310Z,12.40
2019-05-16T08:03:25.893Z,12.50
2019-05-16T08:04:11.536Z,12.40
2019-05-16T08:04:57.206Z,12.30
2019-05-16T08:05:43.374Z,12.20
2019-05-16T08:06:31.046Z,12.30
2019-05-16T08:07:16.748Z,12.30
2019-05-16T08:08:02.384Z,12.30
2019-05-16T08:08:50.579Z,12.30
2019-05-16T08:09:35.847Z,12.30
2019-05-16T08:10:36.926Z,12.40
2019-05-16T08:11:12.213Z,12.40
2019-05-16T08:11:57.495Z,12.40
2019-05-16T08:12:43.250Z,12.40
2019-05-16T08:13:30.847Z,12.40
2019-05-16T08:14:17.092Z,12.40
2019-05-16T08:15:02.998Z,12.50
2019-05-16T08:16:37.216Z,12.40
2019-05-16T08:17:22.872Z,12.40
2019-05-16T08:18:11.528Z,12.30
2019-05-16T08:18:57.203Z,12.20
2019-05-16T08:19:43.483Z,12.20
2019-05-16T08:20:31.304Z,12.30
2019-05-16T08:21:17.174Z,12.30
2019-05-16T08:22:03.487Z,12.20
2019-05-16T08:22:50.720Z,12.30
2019-05-16T08:23:36.962Z,12.20
2019-05-16T08:24:24.305Z,12.10
2019-05-16T08:25:10.779Z,12.10
2019-05-16T08:25:57.250Z,12.20
2019-05-16T08:26:43.485Z,12.20
2019-05-16T08:28:20.512Z,12.10
2019-05-16T08:29:05.169Z,12.00
2019-05-16T08:29:51.393Z,11.90
2019-05-16T08:30:41.006Z,11.90
2019-05-16T08:31:25.442Z,12.00
2019-05-16T08:32:11.679Z,11.90
2019-05-16T08:33:01.393Z,11.90
2019-05-16T08:33:46.064Z,12.00
2019-05-16T08:34:32.543Z,12.00
2019-05-16T08:35:21.088Z,12.00
2019-05-16T08:36:08.251Z,12.00
2019-05-16T08:36:54.867Z,12.00
2019-05-16T08:38:32.702Z,12.00
2019-05-16T08:39:21.262Z,12.00
2019-05-16T08:40:07.752Z,12.00
2019-05-16T08:41:42.400Z,11.90
2019-05-16T08:42:32.147Z,11.90
2019-05-16T08:43:21.386Z,11.80
2019-05-16T08:44:05.996Z,11.80
2019-05-16T08:44:52.790Z,11.80
2019-05-16T08:45:41.753Z,11.90
2019-05-16T08:46:26.476Z,11.90
2019-05-16T08:47:12.256Z,11.90
2019-05-16T08:48:00.290Z,11.90
2019-05-16T08:48:46.092Z,11.90
2019-05-16T08:49:31.769Z,11.90
2019-05-16T08:50:05.094Z,12.50
2019-05-16T08:50:05.960Z,11.90
2019-05-16T08:50:21.685Z,11.90
2019-05-16T08:51:06.855Z,11.80
2019-05-16T08:51:53.244Z,11.80
2019-05-16T08:52:43.279Z,11.80
2019-05-16T08:53:27.022Z,11.80
2019-05-16T08:54:13.623Z,11.80
2019-05-16T08:55:03.316Z,11.80
2019-05-16T08:55:50.331Z,11.80
2019-05-16T08:56:35.200Z,11.80
2019-05-16T08:57:27.454Z,11.80
2019-05-16T08:58:13.581Z,11.80
2019-05-16T08:58:56.852Z,11.90
2019-05-16T08:59:42.503Z,11.80
2019-05-16T09:00:33.133Z,11.80
2019-05-16T09:01:16.090Z,11.80
2019-05-16T09:02:03.318Z,11.80
2019-05-16T09:02:52.105Z,11.80
2019-05-16T09:03:40.608Z,11.80
2019-05-16T09:04:25.412Z,11.80
2019-05-16T09:05:13.515Z,11.80
2019-05-16T09:06:02.822Z,11.80
2019-05-16T09:06:47.919Z,11.70
2019-05-16T09:07:33.792Z,11.70
2019-05-16T09:08:20.090Z,11.70
2019-05-16T09:09:22.253Z,11.70
2019-05-16T09:09:59.784Z,11.70
2019-05-16T09:10:20.963Z,12.00
2019-05-16T09:10:34.934Z,12.10
2019-05-16T09:12:42.901Z,11.60
2019-05-16T09:13:30.130Z,11.70
2019-05-16T09:14:17.345Z,11.70
2019-05-16T09:15:07.407Z,11.70
2019-05-16T09:15:52.512Z,11.60
2019-05-16T09:16:38.773Z,11.70
2019-05-16T09:17:27.717Z,11.80
2019-05-16T09:18:12.885Z,11.80
2019-05-16T09:18:39.563Z,11.70
2019-05-16T09:18:59.044Z,11.80
2019-05-16T09:19:47.139Z,11.90
2019-05-16T09:20:33.040Z,11.90
2019-05-16T09:21:18.947Z,11.90
2019-05-16T09:22:07.165Z,12.00
2019-05-16T09:22:52.366Z,12.10
2019-05-16T09:23:38.567Z,12.10
2019-05-16T09:24:27.241Z,12.20
2019-05-16T09:25:15.127Z,12.30
2019-05-16T09:26:39.028Z,12.30
2019-05-16T09:27:30.891Z,12.40
2019-05-16T09:28:17.808Z,12.50
2019-05-16T09:29:04.013Z,12.50
2019-05-16T09:29:50.198Z,12.60
2019-05-16T09:30:37.107Z,12.60
2019-05-16T09:31:23.310Z,12.70
2019-05-16T09:32:20.475Z,12.70
2019-05-16T09:32:58.764Z,12.80
2019-05-16T09:33:47.383Z,12.80
2019-05-16T09:34:33.434Z,12.90
2019-05-16T09:35:23.722Z,12.80
2019-05-16T09:36:10.310Z,12.80
2019-05-16T09:37:00.448Z,12.90
2019-05-16T09:37:44.443Z,12.80
2019-05-16T09:38:30.659Z,12.80
2019-05-16T09:39:17.125Z,12.80
2019-05-16T09:40:06.295Z,12.90
2019-05-16T09:40:52.138Z,12.90
2019-05-16T09:41:47.685Z,12.90
2019-05-16T09:42:27.738Z,12.90
2019-05-16T09:43:17.457Z,13.00
2019-05-16T09:44:02.496Z,13.00
2019-05-16T09:44:52.758Z,13.10
2019-05-16T09:45:39.736Z,13.10
2019-05-16T09:46:27.564Z,13.10
2019-05-16T09:47:14.032Z,13.10
2019-05-16T09:48:00.537Z,13.20
2019-05-16T09:48:47.933Z,13.30
2019-05-16T09:49:36.846Z,13.30
2019-05-16T09:50:22.511Z,13.40
2019-05-16T09:51:08.926Z,13.40
2019-05-16T09:51:56.773Z,13.50
2019-05-16T09:52:43.133Z,13.50
2019-05-16T09:53:29.103Z,13.50
2019-05-16T09:54:16.822Z,13.50
2019-05-16T09:55:03.704Z,13.40
2019-05-16T09:55:49.672Z,13.30
2019-05-16T09:56:37.043Z,13.30
2019-05-16T09:57:23.676Z,13.40
2019-05-16T09:58:09.819Z,13.40
2019-05-16T09:58:57.395Z,13.40
2019-05-16T09:59:46.377Z,13.40
2019-05-16T10:00:32.643Z,13.50
2019-05-16T10:01:18.422Z,13.40
2019-05-16T10:02:04.165Z,13.40
2019-05-16T10:02:50.261Z,13.40
2019-05-16T10:03:37.234Z,13.50
2019-05-16T10:04:23.334Z,13.60
2019-05-16T10:05:13.182Z,13.60
2019-05-16T10:05:58.841Z,13.60
2019-05-16T10:06:46.324Z,13.70
2019-05-16T10:07:32.338Z,13.80
2019-05-16T10:08:18.487Z,13.80
2019-05-16T10:09:06.471Z,13.90
2019-05-16T10:09:52.577Z,14.00
2019-05-16T10:10:40.710Z,14.10
2019-05-16T10:11:44.325Z,14.20
2019-05-16T10:12:30.452Z,14.30
2019-05-16T10:13:18.247Z,14.50
2019-05-16T10:14:07.272Z,14.60
2019-05-16T10:14:53.582Z,14.80
2019-05-16T10:15:42.534Z,15.00
2019-05-16T10:16:28.497Z,15.70
2019-05-16T10:17:17.633Z,16.00
2019-05-16T10:18:03.546Z,15.90
2019-05-16T10:18:49.643Z,15.90
2019-05-16T10:19:36.786Z,15.90
2019-05-16T10:20:22.784Z,16.40
2019-05-16T10:21:08.710Z,16.70
2019-05-16T10:22:00.036Z,17.50